sensor_id;sensor_type;location;lat;lon;timestamp;pressure;altitude;pressure_sealevel;temperature;humidity
53011;BME280;42803;55.762;38.084;2024-02-14T00:01:21;100616.66;;;-14.77;100.00
53011;BME280;42803;55.762;38.084;2024-02-14T00:03:52;100610.44;;;-14.79;100.00
53011;BME280;42803;55.762;38.084;2024-02-14T00:06:21;100622.38;;;-14.82;100.00
53011;BME280;42803;55.762;38.084;2024-02-14T00:08:51;100622.78;;;-14.88;100.00
53011;BME280;42803;55.762;38.084;2024-02-14T00:11:21;100614.38;;;-14.93;100.00
53011;BME280;42803;55.762;38.084;2024-02-14T00:13:53;100617.19;;;-14.91;100.00
53011;BME280;42803;55.762;38.084;2024-02-14T00:16:24;100618.06;;;-14.87;100.00
53011;BME280;42803;55.762;38.084;2024-02-14T00:18:53;100620.78;;;-14.81;100.00
53011;BME280;42803;55.762;38.084;2024-02-14T00:21:22;100615.19;;;-14.84;100.00
53011;BME280;42803;55.762;38.084;2024-02-14T00:23:51;100607.13;;;-14.87;100.00
53011;BME280;42803;55.762;38.084;2024-02-14T00:26:21;100609.69;;;-14.91;100.00
53011;BME280;42803;55.762;38.084;2024-02-14T00:28:50;100603.38;;;-14.89;100.00
53011;BME280;42803;55.762;38.084;2024-02-14T00:31:20;100605.94;;;-14.93;100.00
53011;BME280;42803;55.762;38.084;2024-02-14T00:34:10;100604.69;;;-14.91;100.00
53011;BME280;42803;55.762;38.084;2024-02-14T00:36:39;100607.53;;;-14.94;100.00
53011;BME280;42803;55.762;38.084;2024-02-14T00:39:08;100610.25;;;-14.88;100.00
53011;BME280;42803;55.762;38.084;2024-02-14T00:41:38;100602.19;;;-14.91;100.00
53011;BME280;42803;55.762;38.084;2024-02-14T00:44:07;100609.72;;;-14.95;100.00
53011;BME280;42803;55.762;38.084;2024-02-14T00:46:38;100604.44;;;-14.97;100.00
53011;BME280;42803;55.762;38.084;2024-02-14T00:49:07;100601.97;;;-15.01;100.00
53011;BME280;42803;55.762;38.084;2024-02-14T00:51:38;100610.41;;;-15.01;100.00
53011;BME280;42803;55.762;38.084;2024-02-14T00:54:07;100616.34;;;-15.00;100.00
53011;BME280;42803;55.762;38.084;2024-02-14T00:56:37;100617.28;;;-15.00;100.00
53011;BME280;42803;55.762;38.084;2024-02-14T00:59:06;100619.78;;;-15.00;100.00
53011;BME280;42803;55.762;38.084;2024-02-14T01:01:35;100630.50;;;-15.05;100.00
53011;BME280;42803;55.762;38.084;2024-02-14T01:04:05;100628.34;;;-15.07;100.00
53011;BME280;42803;55.762;38.084;2024-02-14T01:06:35;100629.97;;;-15.12;100.00
53011;BME280;42803;55.762;38.084;2024-02-14T01:09:04;100630.94;;;-15.15;100.00
53011;BME280;42803;55.762;38.084;2024-02-14T01:11:34;100632.53;;;-15.16;100.00
53011;BME280;42803;55.762;38.084;2024-02-14T01:14:03;100636.94;;;-15.19;100.00
53011;BME280;42803;55.762;38.084;2024-02-14T01:16:33;100640.09;;;-15.20;100.00
53011;BME280;42803;55.762;38.084;2024-02-14T01:19:02;100641.94;;;-15.19;100.00
53011;BME280;42803;55.762;38.084;2024-02-14T01:21:33;100646.72;;;-15.25;100.00
53011;BME280;42803;55.762;38.084;2024-02-14T01:24:02;100647.38;;;-15.26;100.00
53011;BME280;42803;55.762;38.084;2024-02-14T01:26:33;100646.47;;;-15.30;100.00
53011;BME280;42803;55.762;38.084;2024-02-14T01:29:02;100649.00;;;-15.34;100.00
53011;BME280;42803;55.762;38.084;2024-02-14T01:31:33;100647.44;;;-15.34;100.00
53011;BME280;42803;55.762;38.084;2024-02-14T01:34:03;100651.47;;;-15.30;100.00
53011;BME280;42803;55.762;38.084;2024-02-14T01:36:34;100648.34;;;-15.29;100.00
53011;BME280;42803;55.762;38.084;2024-02-14T01:39:04;100652.13;;;-15.31;100.00
53011;BME280;42803;55.762;38.084;2024-02-14T01:41:35;100660.56;;;-15.31;100.00
53011;BME280;42803;55.762;38.084;2024-02-14T01:44:05;100655.22;;;-15.28;100.00
53011;BME280;42803;55.762;38.084;2024-02-14T01:46:34;100660.88;;;-15.29;100.00
53011;BME280;42803;55.762;38.084;2024-02-14T01:49:04;100662.78;;;-15.32;100.00
53011;BME280;42803;55.762;38.084;2024-02-14T01:51:35;100662.06;;;-15.27;100.00
53011;BME280;42803;55.762;38.084;2024-02-14T01:54:05;100668.00;;;-15.27;100.00
53011;BME280;42803;55.762;38.084;2024-02-14T01:56:35;100663.00;;;-15.27;100.00
53011;BME280;42803;55.762;38.084;2024-02-14T01:59:05;100669.91;;;-15.26;100.00
53011;BME280;42803;55.762;38.084;2024-02-14T02:01:35;100671.44;;;-15.26;100.00
53011;BME280;42803;55.762;38.084;2024-02-14T02:04:04;100675.25;;;-15.28;100.00
53011;BME280;42803;55.762;38.084;2024-02-14T02:06:35;100678.72;;;-15.32;100.00
53011;BME280;42803;55.762;38.084;2024-02-14T02:09:05;100683.72;;;-15.32;100.00
53011;BME280;42803;55.762;38.084;2024-02-14T02:11:44;100682.47;;;-15.30;100.00
53011;BME280;42803;55.762;38.084;2024-02-14T02:14:35;100689.66;;;-15.31;100.00
53011;BME280;42803;55.762;38.084;2024-02-14T02:17:24;100692.22;;;-15.35;100.00
53011;BME280;42803;55.762;38.084;2024-02-14T02:20:15;100681.00;;;-15.37;100.00
53011;BME280;42803;55.762;38.084;2024-02-14T02:22:49;100688.81;;;-15.40;100.00
53011;BME280;42803;55.762;38.084;2024-02-14T02:25:38;100682.91;;;-15.40;100.00
53011;BME280;42803;55.762;38.084;2024-02-14T02:28:24;100691.38;;;-15.44;100.00
53011;BME280;42803;55.762;38.084;2024-02-14T02:30:55;100695.41;;;-15.40;100.00
53011;BME280;42803;55.762;38.084;2024-02-14T02:33:24;100696.94;;;-15.37;100.00
53011;BME280;42803;55.762;38.084;2024-02-14T02:35:54;100691.94;;;-15.37;100.00
53011;BME280;42803;55.762;38.084;2024-02-14T02:38:45;100700.69;;;-15.39;100.00
53011;BME280;42803;55.762;38.084;2024-02-14T02:41:34;100702.31;;;-15.43;100.00
53011;BME280;42803;55.762;38.084;2024-02-14T02:44:21;100701.72;;;-15.46;100.00
53011;BME280;42803;55.762;38.084;2024-02-14T02:47:09;100699.59;;;-15.53;100.00
53011;BME280;42803;55.762;38.084;2024-02-14T02:50:00;100701.75;;;-15.51;100.00
53011;BME280;42803;55.762;38.084;2024-02-14T02:52:49;100712.31;;;-15.43;100.00
53011;BME280;42803;55.762;38.084;2024-02-14T02:55:40;100703.00;;;-15.49;100.00
53011;BME280;42803;55.762;38.084;2024-02-14T02:58:09;100709.91;;;-15.52;100.00
53011;BME280;42803;55.762;38.084;2024-02-14T03:00:38;100708.66;;;-15.54;100.00
53011;BME280;42803;55.762;38.084;2024-02-14T03:03:27;100710.31;;;-15.62;100.00
53011;BME280;42803;55.762;38.084;2024-02-14T03:06:20;100712.19;;;-15.61;100.00
53011;BME280;42803;55.762;38.084;2024-02-14T03:09:09;100728.19;;;-15.65;100.00
53011;BME280;42803;55.762;38.084;2024-02-14T03:12:01;100722.00;;;-15.71;100.00
53011;BME280;42803;55.762;38.084;2024-02-14T03:14:51;100726.41;;;-15.74;100.00
53011;BME280;42803;55.762;38.084;2024-02-14T03:17:37;100731.09;;;-15.76;100.00
53011;BME280;42803;55.762;38.084;2024-02-14T03:20:07;100730.19;;;-15.80;100.00
53011;BME280;42803;55.762;38.084;2024-02-14T03:22:44;100732.09;;;-15.79;100.00
53011;BME280;42803;55.762;38.084;2024-02-14T03:25:17;100735.22;;;-15.80;100.00
53011;BME280;42803;55.762;38.084;2024-02-14T03:28:00;100735.88;;;-15.85;100.00
53011;BME280;42803;55.762;38.084;2024-02-14T03:30:31;100731.84;;;-15.89;100.00
53011;BME280;42803;55.762;38.084;2024-02-14T03:33:02;100736.88;;;-15.93;100.00
53011;BME280;42803;55.762;38.084;2024-02-14T03:35:32;100748.47;;;-15.93;100.00
53011;BME280;42803;55.762;38.084;2024-02-14T03:38:02;100744.06;;;-15.90;100.00
53011;BME280;42803;55.762;38.084;2024-02-14T03:40:31;100752.53;;;-15.94;100.00
53011;BME280;42803;55.762;38.084;2024-02-14T03:43:02;100746.03;;;-16.02;100.00
53011;BME280;42803;55.762;38.084;2024-02-14T03:45:31;100748.84;;;-16.04;100.00
53011;BME280;42803;55.762;38.084;2024-02-14T03:48:00;100749.53;;;-16.09;100.00
53011;BME280;42803;55.762;38.084;2024-02-14T03:50:30;100757.94;;;-16.09;100.00
53011;BME280;42803;55.762;38.084;2024-02-14T03:53:00;100760.09;;;-16.06;100.00
53011;BME280;42803;55.762;38.084;2024-02-14T03:55:31;100751.09;;;-16.10;100.00
53011;BME280;42803;55.762;38.084;2024-02-14T03:58:02;100766.09;;;-16.14;100.00
53011;BME280;42803;55.762;38.084;2024-02-14T04:00:33;100766.13;;;-16.18;100.00
53011;BME280;42803;55.762;38.084;2024-02-14T04:03:03;100759.25;;;-16.19;100.00
53011;BME280;42803;55.762;38.084;2024-02-14T04:05:32;100768.94;;;-16.16;100.00
53011;BME280;42803;55.762;38.084;2024-02-14T04:08:01;100770.81;;;-16.19;100.00
53011;BME280;42803;55.762;38.084;2024-02-14T04:10:31;100775.22;;;-16.23;100.00
53011;BME280;42803;55.762;38.084;2024-02-14T04:13:03;100769.88;;;-16.20;100.00
53011;BME280;42803;55.762;38.084;2024-02-14T04:15:32;100765.19;;;-16.18;100.00
53011;BME280;42803;55.762;38.084;2024-02-14T04:18:19;100767.03;;;-16.13;100.00
53011;BME280;42803;55.762;38.084;2024-02-14T04:20:49;100774.25;;;-16.19;100.00
53011;BME280;42803;55.762;38.084;2024-02-14T04:23:19;100778.06;;;-16.25;100.00
53011;BME280;42803;55.762;38.084;2024-02-14T04:25:48;100779.31;;;-16.31;100.00
53011;BME280;42803;55.762;38.084;2024-02-14T04:28:19;100774.03;;;-16.33;100.00
53011;BME280;42803;55.762;38.084;2024-02-14T04:30:48;100784.34;;;-16.35;100.00
53011;BME280;42803;55.762;38.084;2024-02-14T04:33:32;100788.09;;;-16.37;100.00
53011;BME280;42803;55.762;38.084;2024-02-14T04:36:01;100793.06;;;-16.33;100.00
53011;BME280;42803;55.762;38.084;2024-02-14T04:38:32;100793.09;;;-16.37;100.00
53011;BME280;42803;55.762;38.084;2024-02-14T04:41:01;100793.41;;;-16.36;100.00
53011;BME280;42803;55.762;38.084;2024-02-14T04:43:32;100802.47;;;-16.36;100.00
53011;BME280;42803;55.762;38.084;2024-02-14T04:46:02;100799.34;;;-16.35;100.00
53011;BME280;42803;55.762;38.084;2024-02-14T04:48:34;100806.84;;;-16.35;100.00
53011;BME280;42803;55.762;38.084;2024-02-14T04:51:05;100809.38;;;-16.39;100.00
53011;BME280;42803;55.762;38.084;2024-02-14T04:53:34;100809.38;;;-16.43;100.00
53011;BME280;42803;55.762;38.084;2024-02-14T04:56:04;100819.03;;;-16.41;100.00
53011;BME280;42803;55.762;38.084;2024-02-14T04:58:35;100824.38;;;-16.43;100.00
53011;BME280;42803;55.762;38.084;2024-02-14T05:01:04;100813.16;;;-16.50;100.00
53011;BME280;42803;55.762;38.084;2024-02-14T05:03:34;100821.88;;;-16.43;100.00
53011;BME280;42803;55.762;38.084;2024-02-14T05:06:05;100818.44;;;-16.44;100.00
53011;BME280;42803;55.762;38.084;2024-02-14T05:08:34;100819.41;;;-16.48;100.00
53011;BME280;42803;55.762;38.084;2024-02-14T05:11:04;100821.28;;;-16.51;100.00
53011;BME280;42803;55.762;38.084;2024-02-14T05:13:34;100822.50;;;-16.49;100.00
53011;BME280;42803;55.762;38.084;2024-02-14T05:16:06;100830.00;;;-16.40;100.00
53011;BME280;42803;55.762;38.084;2024-02-14T05:18:37;100833.41;;;-16.36;100.00
53011;BME280;42803;55.762;38.084;2024-02-14T05:21:07;100836.81;;;-16.31;100.00
53011;BME280;42803;55.762;38.084;2024-02-14T05:23:36;100829.88;;;-16.20;100.00
53011;BME280;42803;55.762;38.084;2024-02-14T05:26:06;100829.53;;;-16.13;100.00
53011;BME280;42803;55.762;38.084;2024-02-14T05:28:37;100832.94;;;-16.09;100.00
53011;BME280;42803;55.762;38.084;2024-02-14T05:31:06;100834.13;;;-16.03;100.00
53011;BME280;42803;55.762;38.084;2024-02-14T05:33:41;100839.13;;;-15.99;100.00
53011;BME280;42803;55.762;38.084;2024-02-14T05:36:11;100843.50;;;-15.98;100.00
53011;BME280;42803;55.762;38.084;2024-02-14T05:38:41;100841.59;;;-15.90;100.00
53011;BME280;42803;55.762;38.084;2024-02-14T05:41:11;100843.72;;;-15.84;100.00
53011;BME280;42803;55.762;38.084;2024-02-14T05:43:42;100844.31;;;-15.81;100.00
53011;BME280;42803;55.762;38.084;2024-02-14T05:46:12;100848.34;;;-15.73;100.00
53011;BME280;42803;55.762;38.084;2024-02-14T05:48:42;100851.41;;;-15.66;100.00
53011;BME280;42803;55.762;38.084;2024-02-14T05:51:14;100847.56;;;-15.56;100.00
53011;BME280;42803;55.762;38.084;2024-02-14T05:53:44;100851.22;;;-15.45;100.00
53011;BME280;42803;55.762;38.084;2024-02-14T05:56:13;100853.69;;;-15.37;100.00
53011;BME280;42803;55.762;38.084;2024-02-14T05:58:44;100851.88;;;-15.46;100.00
53011;BME280;42803;55.762;38.084;2024-02-14T06:01:13;100852.50;;;-15.48;100.00
53011;BME280;42803;55.762;38.084;2024-02-14T06:03:43;100852.47;;;-15.43;100.00
53011;BME280;42803;55.762;38.084;2024-02-14T06:06:12;100860.31;;;-15.46;100.00
53011;BME280;42803;55.762;38.084;2024-02-14T06:08:41;100855.63;;;-15.44;100.00
53011;BME280;42803;55.762;38.084;2024-02-14T06:11:12;100855.53;;;-15.36;100.00
53011;BME280;42803;55.762;38.084;2024-02-14T06:13:54;100860.53;;;-15.32;100.00
53011;BME280;42803;55.762;38.084;2024-02-14T06:16:23;100861.34;;;-15.19;100.00
53011;BME280;42803;55.762;38.084;2024-02-14T06:18:53;100860.25;;;-15.04;100.00
53011;BME280;42803;55.762;38.084;2024-02-14T06:21:22;100862.06;;;-14.94;100.00
53011;BME280;42803;55.762;38.084;2024-02-14T06:23:53;100864.56;;;-14.94;100.00
53011;BME280;42803;55.762;38.084;2024-02-14T06:26:23;100863.22;;;-14.88;100.00
53011;BME280;42803;55.762;38.084;2024-02-14T06:28:53;100866.66;;;-14.84;100.00
53011;BME280;42803;55.762;38.084;2024-02-14T06:31:23;100866.22;;;-14.73;100.00
53011;BME280;42803;55.762;38.084;2024-02-14T06:33:53;100867.41;;;-14.67;100.00
53011;BME280;42803;55.762;38.084;2024-02-14T06:36:23;100861.28;;;-14.51;100.00
53011;BME280;42803;55.762;38.084;2024-02-14T06:38:52;100866.53;;;-14.45;100.00
53011;BME280;42803;55.762;38.084;2024-02-14T06:41:22;100858.31;;;-14.40;100.00
53011;BME280;42803;55.762;38.084;2024-02-14T06:43:51;100863.28;;;-14.36;100.00
53011;BME280;42803;55.762;38.084;2024-02-14T06:46:22;100861.19;;;-14.21;100.00
53011;BME280;42803;55.762;38.084;2024-02-14T06:48:52;100867.16;;;-14.20;100.00
53011;BME280;42803;55.762;38.084;2024-02-14T06:51:22;100859.13;;;-14.06;100.00
53011;BME280;42803;55.762;38.084;2024-02-14T06:53:52;100860.41;;;-14.08;100.00
53011;BME280;42803;55.762;38.084;2024-02-14T06:56:22;100864.50;;;-13.86;100.00
53011;BME280;42803;55.762;38.084;2024-02-14T06:58:51;100869.88;;;-13.67;100.00
53011;BME280;42803;55.762;38.084;2024-02-14T07:01:29;100862.97;;;-13.46;100.00
53011;BME280;42803;55.762;38.084;2024-02-14T07:03:59;100862.53;;;-13.57;100.00
53011;BME280;42803;55.762;38.084;2024-02-14T07:06:29;100866.22;;;-13.55;100.00
53011;BME280;42803;55.762;38.084;2024-02-14T07:08:58;100869.00;;;-13.49;100.00
53011;BME280;42803;55.762;38.084;2024-02-14T07:11:28;100867.63;;;-13.43;100.00
53011;BME280;42803;55.762;38.084;2024-02-14T07:13:57;100866.56;;;-13.36;100.00
53011;BME280;42803;55.762;38.084;2024-02-14T07:16:26;100866.81;;;-13.30;100.00
53011;BME280;42803;55.762;38.084;2024-02-14T07:18:58;100868.59;;;-13.25;100.00
53011;BME280;42803;55.762;38.084;2024-02-14T07:21:27;100877.13;;;-13.11;100.00
53011;BME280;42803;55.762;38.084;2024-02-14T07:23:57;100874.13;;;-13.00;100.00
53011;BME280;42803;55.762;38.084;2024-02-14T07:26:26;100869.59;;;-12.93;100.00
53011;BME280;42803;55.762;38.084;2024-02-14T07:28:55;100876.75;;;-12.90;100.00
53011;BME280;42803;55.762;38.084;2024-02-14T07:31:28;100876.31;;;-13.02;100.00
53011;BME280;42803;55.762;38.084;2024-02-14T07:34:02;100885.53;;;-12.88;100.00
53011;BME280;42803;55.762;38.084;2024-02-14T07:36:36;100876.00;;;-12.81;100.00
53011;BME280;42803;55.762;38.084;2024-02-14T07:39:06;100877.13;;;-12.75;100.00
53011;BME280;42803;55.762;38.084;2024-02-14T07:41:36;100878.13;;;-12.79;100.00
53011;BME280;42803;55.762;38.084;2024-02-14T07:44:05;100878.59;;;-12.85;100.00
53011;BME280;42803;55.762;38.084;2024-02-14T07:46:35;100878.94;;;-12.70;100.00
53011;BME280;42803;55.762;38.084;2024-02-14T07:49:06;100875.03;;;-12.64;100.00
53011;BME280;42803;55.762;38.084;2024-02-14T07:51:37;100886.16;;;-12.54;100.00
53011;BME280;42803;55.762;38.084;2024-02-14T07:54:07;100875.94;;;-12.45;100.00
53011;BME280;42803;55.762;38.084;2024-02-14T07:56:37;100876.09;;;-12.54;100.00
53011;BME280;42803;55.762;38.084;2024-02-14T07:59:06;100878.69;;;-12.58;100.00
53011;BME280;42803;55.762;38.084;2024-02-14T08:01:35;100873.91;;;-12.70;99.16
53011;BME280;42803;55.762;38.084;2024-02-14T08:04:06;100892.53;;;-12.42;100.00
53011;BME280;42803;55.762;38.084;2024-02-14T08:06:35;100877.28;;;-12.34;100.00
53011;BME280;42803;55.762;38.084;2024-02-14T08:09:05;100876.34;;;-12.34;98.96
53011;BME280;42803;55.762;38.084;2024-02-14T08:11:38;100880.47;;;-12.21;99.29
53011;BME280;42803;55.762;38.084;2024-02-14T08:14:07;100876.41;;;-12.07;99.60
53011;BME280;42803;55.762;38.084;2024-02-14T08:16:40;100870.97;;;-12.18;98.61
53011;BME280;42803;55.762;38.084;2024-02-14T08:19:10;100873.31;;;-12.10;98.74
53011;BME280;42803;55.762;38.084;2024-02-14T08:21:40;100874.97;;;-11.96;99.28
53011;BME280;42803;55.762;38.084;2024-02-14T08:24:09;100879.34;;;-11.95;98.53
53011;BME280;42803;55.762;38.084;2024-02-14T08:26:39;100882.69;;;-12.05;96.95
53011;BME280;42803;55.762;38.084;2024-02-14T08:29:08;100877.66;;;-11.77;98.66
53011;BME280;42803;55.762;38.084;2024-02-14T08:31:39;100884.91;;;-11.65;98.45
53011;BME280;42803;55.762;38.084;2024-02-14T08:34:10;100883.69;;;-11.81;96.97
53011;BME280;42803;55.762;38.084;2024-02-14T08:36:39;100887.25;;;-11.70;96.09
53011;BME280;42803;55.762;38.084;2024-02-14T08:39:10;100879.13;;;-11.46;96.70
53011;BME280;42803;55.762;38.084;2024-02-14T08:41:40;100890.44;;;-11.58;94.59
53011;BME280;42803;55.762;38.084;2024-02-14T08:44:13;100893.22;;;-11.70;94.30
53011;BME280;42803;55.762;38.084;2024-02-14T08:46:43;100889.16;;;-11.56;95.13
53011;BME280;42803;55.762;38.084;2024-02-14T08:49:17;100895.09;;;-11.41;95.36
53011;BME280;42803;55.762;38.084;2024-02-14T08:51:46;100895.19;;;-11.32;96.00
53011;BME280;42803;55.762;38.084;2024-02-14T08:54:16;100893.97;;;-11.20;94.85
53011;BME280;42803;55.762;38.084;2024-02-14T08:56:49;100897.09;;;-11.07;93.76
53011;BME280;42803;55.762;38.084;2024-02-14T08:59:22;100893.44;;;-10.99;94.47
53011;BME280;42803;55.762;38.084;2024-02-14T09:01:51;100902.00;;;-11.13;92.83
53011;BME280;42803;55.762;38.084;2024-02-14T09:04:22;100899.09;;;-11.24;92.55
53011;BME280;42803;55.762;38.084;2024-02-14T09:06:51;100906.81;;;-11.05;92.59
53011;BME280;42803;55.762;38.084;2024-02-14T09:09:21;100910.25;;;-10.90;93.59
53011;BME280;42803;55.762;38.084;2024-02-14T09:11:50;100908.69;;;-11.03;93.72
53011;BME280;42803;55.762;38.084;2024-02-14T09:14:21;100908.72;;;-11.17;93.46
53011;BME280;42803;55.762;38.084;2024-02-14T09:16:53;100905.53;;;-11.16;93.89
53011;BME280;42803;55.762;38.084;2024-02-14T09:19:24;100901.88;;;-10.95;94.43
53011;BME280;42803;55.762;38.084;2024-02-14T09:21:55;100903.53;;;-10.99;93.11
53011;BME280;42803;55.762;38.084;2024-02-14T09:24:24;100894.22;;;-10.91;94.58
53011;BME280;42803;55.762;38.084;2024-02-14T09:26:54;100903.06;;;-10.93;94.58
53011;BME280;42803;55.762;38.084;2024-02-14T09:29:23;100902.03;;;-10.89;93.38
53011;BME280;42803;55.762;38.084;2024-02-14T09:31:53;100901.25;;;-10.70;94.17
53011;BME280;42803;55.762;38.084;2024-02-14T09:34:23;100898.47;;;-10.72;94.39
53011;BME280;42803;55.762;38.084;2024-02-14T09:36:53;100903.53;;;-10.62;93.79
53011;BME280;42803;55.762;38.084;2024-02-14T09:39:24;100892.09;;;-10.46;93.29
53011;BME280;42803;55.762;38.084;2024-02-14T09:41:58;100890.56;;;-10.36;92.84
53011;BME280;42803;55.762;38.084;2024-02-14T09:44:29;100897.81;;;-10.47;92.09
53011;BME280;42803;55.762;38.084;2024-02-14T09:47:00;100906.50;;;-10.55;92.57
53011;BME280;42803;55.762;38.084;2024-02-14T09:49:35;100898.06;;;-10.46;92.51
53011;BME280;42803;55.762;38.084;2024-02-14T09:52:05;100901.94;;;-10.38;91.63
53011;BME280;42803;55.762;38.084;2024-02-14T09:54:36;100897.06;;;-10.23;91.90
53011;BME280;42803;55.762;38.084;2024-02-14T09:57:07;100892.09;;;-10.03;91.50
53011;BME280;42803;55.762;38.084;2024-02-14T09:59:38;100899.78;;;-9.84;91.56
53011;BME280;42803;55.762;38.084;2024-02-14T10:02:08;100907.06;;;-9.86;91.65
53011;BME280;42803;55.762;38.084;2024-02-14T10:04:40;100908.22;;;-10.03;91.68
53011;BME280;42803;55.762;38.084;2024-02-14T10:07:09;100899.13;;;-9.83;92.42
53011;BME280;42803;55.762;38.084;2024-02-14T10:09:44;100901.78;;;-9.77;92.58
53011;BME280;42803;55.762;38.084;2024-02-14T10:12:13;100903.25;;;-9.84;90.54
53011;BME280;42803;55.762;38.084;2024-02-14T10:14:43;100906.06;;;-9.72;91.20
53011;BME280;42803;55.762;38.084;2024-02-14T10:17:17;100900.06;;;-9.73;92.22
53011;BME280;42803;55.762;38.084;2024-02-14T10:19:59;100891.88;;;-9.52;93.68
53011;BME280;42803;55.762;38.084;2024-02-14T10:22:34;100894.16;;;-9.44;91.29
53011;BME280;42803;55.762;38.084;2024-02-14T10:25:05;100901.75;;;-9.35;91.75
53011;BME280;42803;55.762;38.084;2024-02-14T10:27:36;100899.34;;;-9.48;91.19
53011;BME280;42803;55.762;38.084;2024-02-14T10:30:07;100898.13;;;-9.60;90.08
53011;BME280;42803;55.762;38.084;2024-02-14T10:32:39;100909.28;;;-9.64;90.81
53011;BME280;42803;55.762;38.084;2024-02-14T10:35:11;100909.34;;;-9.77;89.78
53011;BME280;42803;55.762;38.084;2024-02-14T10:37:41;100907.41;;;-9.65;89.61
53011;BME280;42803;55.762;38.084;2024-02-14T10:40:11;100898.69;;;-9.38;89.40
53011;BME280;42803;55.762;38.084;2024-02-14T10:42:41;100893.38;;;-9.10;89.41
53011;BME280;42803;55.762;38.084;2024-02-14T10:45:10;100897.91;;;-9.13;88.69
53011;BME280;42803;55.762;38.084;2024-02-14T10:47:51;100892.94;;;-9.46;88.47
53011;BME280;42803;55.762;38.084;2024-02-14T10:50:24;100904.13;;;-9.40;91.05
53011;BME280;42803;55.762;38.084;2024-02-14T10:53:00;100894.69;;;-9.32;91.27
53011;BME280;42803;55.762;38.084;2024-02-14T10:55:36;100900.31;;;-9.19;90.25
53011;BME280;42803;55.762;38.084;2024-02-14T10:58:10;100897.75;;;-9.38;89.36
53011;BME280;42803;55.762;38.084;2024-02-14T11:00:42;100893.63;;;-9.28;90.85
53011;BME280;42803;55.762;38.084;2024-02-14T11:03:13;100890.84;;;-9.20;91.63
53011;BME280;42803;55.762;38.084;2024-02-14T11:05:46;100889.78;;;-9.06;90.38
53011;BME280;42803;55.762;38.084;2024-02-14T11:08:19;100901.22;;;-9.09;91.25
53011;BME280;42803;55.762;38.084;2024-02-14T11:10:53;100897.50;;;-9.11;89.70
53011;BME280;42803;55.762;38.084;2024-02-14T11:13:25;100895.75;;;-9.16;89.14
53011;BME280;42803;55.762;38.084;2024-02-14T11:15:56;100908.16;;;-9.07;91.00
53011;BME280;42803;55.762;38.084;2024-02-14T11:18:27;100899.53;;;-9.04;89.99
53011;BME280;42803;55.762;38.084;2024-02-14T11:21:03;100903.88;;;-9.13;89.87
53011;BME280;42803;55.762;38.084;2024-02-14T11:23:33;100906.28;;;-9.18;92.18
53011;BME280;42803;55.762;38.084;2024-02-14T11:26:03;100903.19;;;-9.31;91.30
53011;BME280;42803;55.762;38.084;2024-02-14T11:28:37;100896.16;;;-9.28;93.76
53011;BME280;42803;55.762;38.084;2024-02-14T11:31:08;100903.59;;;-9.24;93.21
53011;BME280;42803;55.762;38.084;2024-02-14T11:33:38;100899.09;;;-9.30;91.98
53011;BME280;42803;55.762;38.084;2024-02-14T11:36:10;100898.03;;;-9.27;91.99
53011;BME280;42803;55.762;38.084;2024-02-14T11:38:44;100903.47;;;-9.20;92.11
53011;BME280;42803;55.762;38.084;2024-02-14T11:41:15;100901.63;;;-9.30;92.88
53011;BME280;42803;55.762;38.084;2024-02-14T11:43:52;100908.53;;;-9.29;93.88
53011;BME280;42803;55.762;38.084;2024-02-14T11:46:29;100903.63;;;-9.34;93.46
53011;BME280;42803;55.762;38.084;2024-02-14T11:49:05;100893.00;;;-9.27;92.68
53011;BME280;42803;55.762;38.084;2024-02-14T11:51:37;100897.22;;;-9.32;92.78
53011;BME280;42803;55.762;38.084;2024-02-14T11:54:06;100899.63;;;-9.18;93.38
53011;BME280;42803;55.762;38.084;2024-02-14T11:56:36;100901.75;;;-9.25;94.67
53011;BME280;42803;55.762;38.084;2024-02-14T11:59:07;100896.97;;;-9.33;93.39
53011;BME280;42803;55.762;38.084;2024-02-14T12:01:39;100892.16;;;-9.41;94.61
53011;BME280;42803;55.762;38.084;2024-02-14T12:04:10;100889.78;;;-9.45;95.59
53011;BME280;42803;55.762;38.084;2024-02-14T12:06:41;100893.09;;;-9.41;95.68
53011;BME280;42803;55.762;38.084;2024-02-14T12:09:11;100895.38;;;-9.42;95.34
53011;BME280;42803;55.762;38.084;2024-02-14T12:11:54;100896.38;;;-9.55;95.22
53011;BME280;42803;55.762;38.084;2024-02-14T12:14:24;100898.25;;;-9.64;94.29
53011;BME280;42803;55.762;38.084;2024-02-14T12:16:59;100890.78;;;-9.59;95.55
53011;BME280;42803;55.762;38.084;2024-02-14T12:19:31;100897.72;;;-9.58;96.24
53011;BME280;42803;55.762;38.084;2024-02-14T12:22:09;100898.50;;;-9.63;96.02
53011;BME280;42803;55.762;38.084;2024-02-14T12:24:46;100897.31;;;-9.65;96.72
53011;BME280;42803;55.762;38.084;2024-02-14T12:27:17;100902.38;;;-9.65;96.47
53011;BME280;42803;55.762;38.084;2024-02-14T12:29:47;100897.94;;;-9.66;96.33
53011;BME280;42803;55.762;38.084;2024-02-14T12:32:17;100896.47;;;-9.69;95.57
53011;BME280;42803;55.762;38.084;2024-02-14T12:34:47;100897.00;;;-9.76;95.66
53011;BME280;42803;55.762;38.084;2024-02-14T12:37:18;100900.59;;;-9.70;96.37
53011;BME280;42803;55.762;38.084;2024-02-14T12:39:47;100902.56;;;-9.83;95.98
53011;BME280;42803;55.762;38.084;2024-02-14T12:42:16;100900.84;;;-9.88;96.29
53011;BME280;42803;55.762;38.084;2024-02-14T12:44:54;100899.50;;;-9.86;96.62
53011;BME280;42803;55.762;38.084;2024-02-14T12:47:24;100900.97;;;-9.82;98.20
53011;BME280;42803;55.762;38.084;2024-02-14T12:49:59;100905.59;;;-9.89;98.27